• Join FlightAware (Why Join?)
  • Login
  • US Flag 
07:34AM EDT


 

Airport Tracker/Info


-or-


 

Live Flight TrackerFlight Track Log ✈ SKW5510 ✈ 22-Apr-2013 ✈ KDEN - KTUL

Flight Track Log - Related Links

Times and Time Zones

All times are in EDT time to prevent confusion due to time zone crossing. See the SKW5510 flight status page for this flight to view local times or setup timezone preferences in your user account.

Time Position Orientation Groundspeed Altitude Reporting Facility
EDT Latitude Longitude Course Direction KTS MPH feet Rate Location/Type
04:42PM 39.9167 -104.6833 99° East 173 199 6,600  Level Denver TRACON
04:43PM 39.9167 -104.6167 90° East 261 300 7,700 1,680 Climbing Denver TRACON
04:44PM 39.7793 -104.1318 101° East  Level FlightAware Approximate
04:44PM 39.8833 -104.5333 118° Southeast 281 323 9,800  Level Denver TRACON
04:45PM 39.7623 -103.9535 113° Southeast  Level FlightAware Approximate
04:45PM 39.8667 -104.4333 102° East 295 339 11,500  Level Denver TRACON
04:45PM 39.8611 -104.4219 122° Southeast 285 328 11,800 1,740 Climbing Denver Center
04:46PM 39.7403 -103.7778 108° East  Level FlightAware Approximate
04:46PM 39.8442 -104.2828 99° East 324 373 14,000  Level Denver Center
04:47PM 39.7293 -103.5986 99° East  Level FlightAware Approximate
04:47PM 39.8197 -104.1550 104° East 339 390 16,000  Level Denver Center
04:48PM 39.7958 -104.0303 104° East 356 410 17,700 1,500 Climbing Denver Center
04:49PM 39.7711 -103.9031 104° East 365 420 19,100 1,380 Climbing Denver Center
04:50PM 39.7447 -103.7639 104° East 369 425 20,600 1,320 Climbing Denver Center
04:51PM 39.7325 -103.6233 96° East 391 450 21,800 1,020 Climbing Denver Center
04:52PM 39.7203 -103.4736 96° East 411 473 22,800 960 Climbing Denver Center
04:53PM 39.7081 -103.3183 96° East 426 490 23,800 840 Climbing Denver Center
04:54PM 39.6944 -103.1592 96° East 438 504 24,600 780 Climbing Denver Center
04:55PM 39.6808 -102.9928 96° East 456 525 25,400 960 Climbing Denver Center
04:56PM 39.6672 -102.8250 96° East 462 532 26,600 840 Climbing Denver Center
04:57PM 39.6503 -102.6503 97° East 466 536 27,200 480 Climbing Denver Center
04:58PM 39.6364 -102.4836 96° East 483 556 27,600 480 Climbing Denver Center
04:59PM 39.6183 -102.2817 97° East 505 581 28,200 480 Climbing Denver Center
05:00PM 39.6031 -102.1067 96° East 511 588 28,700 480 Climbing Denver Center
05:01PM 39.5853 -101.8983 96° East 520 598 29,300 480 Climbing Denver Center
05:02PM 39.5711 -101.7175 96° East 527 606 29,700 480 Climbing Denver Center
05:03PM 39.5533 -101.5047 96° East 533 613 30,300 480 Climbing Denver Center
05:04PM 39.5103 -101.3339 108° East 530 610 30,800 360 Climbing Denver Center
05:06PM 39.4386 -101.1783 121° Southeast 528 608 31,200 480 Climbing Denver Center
05:07PM 39.3431 -100.9719 121° Southeast 527 606 31,900 600 Climbing Denver Center
05:08PM 39.2597 -100.7917 121° Southeast 526 605 32,500 480 Climbing Denver Center
05:09PM 39.1889 -100.6400 121° Southeast 521 600 32,900 240 Climbing Denver Center
05:10PM 39.1178 -100.4886 121° Southeast 518 596 33,000  Climbing Denver Center
05:11PM 39.0325 -100.3114 122° Southeast 523 602 33,000  Level Denver Center
05:12PM 38.9606 -100.1581 121° Southeast 530 610 33,000  Level Denver Center
05:13PM 38.8733 -99.9747 121° Southeast 536 617 33,000  Level Denver Center
05:14PM 38.7981 -99.8178 122° Southeast 539 620 33,000  Level Denver Center
05:15PM 38.7356 -99.6883 122° Southeast 539 620 33,000  Level Denver Center
05:16PM 38.6350 -99.4822 122° Southeast 535 616 33,000  Level Denver Center
05:16PM 38.6111 -99.4325 122° Southeast 533 613 33,000  Level Kansas City Center
05:17PM 38.5317 -99.2722 122° Southeast 532 612 33,000  Level Kansas City Center
05:18PM 38.4369 -99.0811 122° Southeast 533 613 33,000  Level Kansas City Center
05:19PM 38.3594 -98.9214 122° Southeast 530 610 33,000  Level Kansas City Center
05:20PM 38.2819 -98.7611 122° Southeast 531 611 33,000  Level Kansas City Center
05:22PM 38.2025 -98.6033 123° Southeast 531 611 33,000  Level Kansas City Center
05:23PM 38.1233 -98.4458 123° Southeast 531 611 33,000  Level Kansas City Center
05:24PM 38.0442 -98.2883 123° Southeast 531 611 33,000  Level Kansas City Center
05:25PM 37.9344 -98.1211 130° Southeast 521 600 33,000  Level Kansas City Center
05:26PM 37.8342 -97.9822 132° Southeast 527 606 33,000  Level Kansas City Center
05:27PM 37.7356 -97.8464 133° Southeast 527 606 33,000  Level Kansas City Center
05:28PM 37.6303 -97.7003 132° Southeast 526 605 33,000  Level Kansas City Center
05:29PM 37.5258 -97.5556 132° Southeast 525 604 33,000  Level Kansas City Center
05:30PM 37.4264 -97.4208 133° Southeast 525 604 33,000 -180 Level Kansas City Center
05:31PM 37.3275 -97.2892 133° Southeast 520 598 32,700 -1,740 Descending Kansas City Center
05:32PM 37.2233 -97.1528 134° Southeast 535 616 29,600 -3,000 Descending Kansas City Center
05:33PM 37.1194 -97.0119 133° Southeast 548 631 26,600 -2,880 Descending Kansas City Center
05:34PM 37.0217 -96.8803 133° Southeast 522 601 23,600 -3,120 Descending Kansas City Center
05:35PM 36.9172 -96.7417 133° Southeast 492 566 20,300 -3,180 Descending Kansas City Center
05:36PM 36.8358 -96.6261 131° Southeast 451 519 17,100 -3,000 Descending Kansas City Center
05:37PM 36.7561 -96.5217 134° Southeast 424 488 14,100 -3,300 Descending Kansas City Center
05:38PM 36.7008 -96.4481 133° Southeast 396 456 12,000 -2,760 Descending Kansas City Center
05:38PM 36.6808 -96.4222 134° Southeast 402 463 11,200 -1,620 Descending Kansas City Center
05:39PM 36.6144 -96.3364 134° Southeast 386 444 10,100 -1,200 Descending Kansas City Center
05:39PM 36.5942 -96.3069 131° Southeast 385 443 10,000 -360 Descending Kansas City Center
05:40PM 36.5558 -96.2606 136° Southeast 320 368 9,800 -1,020 Descending Kansas City Center
05:40PM 36.5350 -96.2286 129° Southeast 338 389 9,000 -1,920 Descending Kansas City Center
05:41PM 36.4775 -96.1533 134° Southeast 307 353 7,000 -1,920 Descending Kansas City Center
05:42PM 36.4472 -96.1158 135° Southeast 270 311 5,900 -1,920 Descending Kansas City Center
05:42PM 36.4261 -96.0878 133° Southeast 286 329 5,100 -1,920 Descending Kansas City Center
05:43PM 36.3997 -96.0494 131° Southeast 252 290 4,000 -1,680 Descending Kansas City Center
05:43PM 36.3844 -96.0189 122° Southeast 266 306 3,400 -1,440 Descending Kansas City Center
05:44PM 36.3614 -95.9661 118° Southeast 253 291 2,600 -900 Descending Kansas City Center
05:44PM 36.3519 -95.9436 118° Southeast 255 293 2,500  Descending Kansas City Center
05:45PM 36.3328 -95.9025 120° Southeast 191 220 2,600  Climbing Kansas City Center
05:45PM 36.3114 -95.8922 159° South 211 243 2,500 -240 Descending Kansas City Center